createdAt,value
2023-02-20T00:01:31.852Z,14.0
2023-02-20T00:06:38.042Z,12.0
2023-02-20T00:11:43.290Z,13.0
2023-02-20T00:16:49.832Z,14.0
2023-02-20T00:21:54.740Z,12.0
2023-02-20T00:27:00.937Z,12.5
2023-02-20T00:32:07.259Z,12.0
2023-02-20T00:37:13.351Z,13.0
2023-02-20T00:42:19.564Z,13.0
2023-02-20T00:47:25.795Z,13.0
2023-02-20T00:52:31.983Z,13.0
2023-02-20T00:57:38.184Z,13.0
2023-02-20T01:02:44.439Z,14.0
2023-02-20T01:07:50.603Z,13.0
2023-02-20T01:12:56.814Z,13.0
2023-02-20T01:18:03.030Z,14.0
2023-02-20T01:23:09.216Z,12.0
2023-02-20T01:28:15.430Z,13.0
2023-02-20T01:33:21.634Z,13.0
2023-02-20T01:38:27.842Z,14.0
2023-02-20T01:43:34.049Z,14.0
2023-02-20T01:48:40.258Z,14.0
2023-02-20T01:53:46.476Z,14.0
2023-02-20T01:58:52.674Z,15.0
2023-02-20T02:03:58.891Z,16.0
2023-02-20T02:09:04.123Z,15.0
2023-02-20T02:14:10.323Z,15.0
2023-02-20T02:19:16.531Z,16.5
2023-02-20T02:24:21.769Z,15.0
2023-02-20T02:29:27.972Z,16.0
2023-02-20T02:34:34.181Z,15.0
2023-02-20T02:39:40.396Z,15.0
2023-02-20T02:44:46.589Z,15.0
2023-02-20T02:49:52.802Z,17.0
2023-02-20T02:54:59.010Z,16.0
2023-02-20T03:00:05.336Z,16.0
2023-02-20T03:05:11.425Z,18.0
2023-02-20T03:10:17.634Z,17.0
2023-02-20T03:15:23.895Z,18.0
2023-02-20T03:20:30.052Z,19.0
2023-02-20T03:25:36.260Z,21.0
2023-02-20T03:30:43.230Z,21.5
2023-02-20T03:35:48.677Z,22.5
2023-02-20T03:40:54.884Z,25.0
2023-02-20T03:46:01.183Z,24.0
2023-02-20T03:51:07.404Z,24.0
2023-02-20T03:56:13.733Z,25.0
2023-02-20T04:01:18.774Z,26.0
2023-02-20T04:06:24.941Z,25.5
2023-02-20T04:11:30.196Z,27.0
2023-02-20T04:16:36.414Z,26.0
2023-02-20T04:21:42.598Z,23.0
2023-02-20T04:26:47.826Z,25.0
2023-02-20T04:31:54.109Z,25.0
2023-02-20T04:37:00.251Z,26.0
2023-02-20T04:42:06.459Z,25.0
2023-02-20T04:47:12.663Z,24.0
2023-02-20T04:52:18.863Z,26.0
2023-02-20T04:57:25.067Z,25.0
2023-02-20T05:02:31.276Z,25.0
2023-02-20T05:07:37.487Z,24.0
2023-02-20T05:12:43.746Z,27.0
2023-02-20T05:17:49.903Z,28.5
2023-02-20T05:22:56.110Z,25.5
2023-02-20T05:28:02.427Z,26.0
2023-02-20T05:33:08.531Z,28.0
2023-02-20T05:38:14.730Z,27.0
2023-02-20T05:43:20.933Z,25.0
2023-02-20T05:48:27.146Z,26.0
2023-02-20T05:53:33.716Z,30.0
2023-02-20T05:58:39.564Z,30.0
2023-02-20T06:03:46.130Z,30.0
2023-02-20T06:08:51.988Z,30.0
2023-02-20T06:13:58.184Z,30.0
2023-02-20T06:19:03.418Z,30.0
2023-02-20T06:24:10.774Z,30.0
2023-02-20T06:29:16.484Z,29.0
2023-02-20T06:34:22.048Z,29.0
2023-02-20T06:39:28.348Z,29.0
2023-02-20T06:44:34.582Z,31.0
2023-02-20T06:49:40.677Z,29.0
2023-02-20T06:54:46.883Z,30.0
2023-02-20T06:59:53.183Z,33.0
2023-02-20T07:04:59.300Z,34.0
2023-02-20T07:10:05.509Z,34.0
2023-02-20T07:15:11.702Z,36.0
2023-02-20T07:20:17.920Z,33.0
2023-02-20T07:25:24.124Z,33.0
2023-02-20T07:30:30.627Z,31.0
2023-02-20T07:35:36.550Z,32.0
2023-02-20T07:40:42.747Z,31.0
2023-02-20T07:45:48.994Z,34.0
2023-02-20T07:50:55.162Z,31.0
2023-02-20T07:56:01.371Z,34.5
2023-02-20T08:01:07.578Z,33.0
2023-02-20T08:06:13.208Z,32.0
2023-02-20T08:11:19.119Z,33.0
2023-02-20T08:16:24.522Z,33.0
2023-02-20T08:21:30.550Z,33.0
2023-02-20T08:26:36.672Z,34.0
2023-02-20T08:31:43.012Z,31.0
2023-02-20T08:36:49.092Z,31.0
2023-02-20T08:41:55.297Z,30.5
2023-02-20T08:47:01.499Z,31.0
2023-02-20T08:52:07.852Z,31.0
2023-02-20T08:57:13.912Z,30.0
2023-02-20T09:02:20.203Z,30.5
2023-02-20T09:07:26.349Z,28.5
2023-02-20T09:12:32.573Z,29.0
2023-02-20T09:17:38.749Z,29.0
2023-02-20T09:22:44.965Z,33.0
2023-02-20T09:27:51.163Z,30.0
2023-02-20T09:32:57.425Z,33.5
2023-02-20T09:38:03.577Z,32.0
2023-02-20T09:43:09.789Z,32.0
2023-02-20T09:48:15.998Z,31.5
2023-02-20T09:53:22.217Z,31.0
2023-02-20T09:58:28.417Z,31.0
2023-02-20T10:03:33.647Z,30.0
2023-02-20T10:08:39.863Z,30.0
2023-02-20T10:13:46.064Z,31.0
2023-02-20T10:18:52.268Z,35.0
2023-02-20T10:24:05.614Z,32.0
2023-02-20T10:29:04.783Z,33.0
2023-02-20T10:34:09.927Z,35.0
2023-02-20T10:39:16.165Z,31.0
2023-02-20T10:44:22.356Z,34.0
2023-02-20T10:49:28.545Z,32.0
2023-02-20T10:54:34.759Z,34.0
2023-02-20T10:59:40.966Z,32.5
2023-02-20T11:04:47.293Z,32.0
2023-02-20T11:09:53.378Z,32.0
2023-02-20T11:14:59.587Z,35.0
2023-02-20T11:20:05.789Z,34.5
2023-02-20T11:25:12.004Z,33.5
2023-02-20T11:30:18.277Z,33.5
2023-02-20T11:35:24.419Z,31.0
2023-02-20T11:40:30.627Z,35.0
2023-02-20T11:45:36.838Z,32.0
2023-02-20T11:50:43.043Z,32.5
2023-02-20T11:55:59.773Z,36.5
2023-02-20T12:00:55.484Z,34.0
2023-02-20T12:06:01.802Z,36.0
2023-02-20T12:11:07.866Z,33.5
2023-02-20T12:16:14.576Z,33.5
2023-02-20T12:21:19.305Z,34.5
2023-02-20T12:26:25.510Z,36.0
2023-02-20T12:31:30.877Z,37.0
2023-02-20T12:36:36.958Z,35.0
2023-02-20T12:41:43.173Z,35.0
2023-02-20T12:46:49.389Z,36.0
2023-02-20T12:51:55.585Z,34.0
2023-02-20T12:57:01.790Z,34.0
2023-02-20T13:02:08.005Z,34.0
2023-02-20T13:07:14.205Z,36.0
2023-02-20T13:12:20.415Z,34.0
2023-02-20T13:17:26.727Z,30.0
2023-02-20T13:22:32.833Z,30.5
2023-02-20T13:27:42.196Z,31.0
2023-02-20T13:32:45.249Z,30.0
2023-02-20T13:37:51.499Z,27.0
2023-02-20T13:42:57.659Z,26.0
2023-02-20T13:48:03.878Z,25.5
2023-02-20T13:53:10.181Z,24.0
2023-02-20T13:58:16.316Z,20.0
2023-02-20T14:03:22.503Z,17.0
2023-02-20T14:08:28.741Z,17.0
2023-02-20T14:13:40.662Z,15.0
2023-02-20T14:18:40.150Z,15.0
2023-02-20T14:23:46.356Z,15.0
2023-02-20T14:28:52.588Z,15.0
2023-02-20T14:33:57.804Z,14.0
2023-02-20T14:39:04.019Z,14.5
2023-02-20T14:44:10.226Z,17.0
2023-02-20T14:49:16.425Z,21.0
2023-02-20T14:54:22.635Z,23.0
2023-02-20T14:59:29.165Z,22.0
2023-02-20T15:04:35.046Z,18.0
2023-02-20T15:09:41.262Z,17.0
2023-02-20T15:14:47.525Z,17.0
2023-02-20T15:19:53.677Z,17.0
2023-02-20T15:24:59.880Z,19.0
2023-02-20T15:30:06.144Z,19.0
2023-02-20T15:35:12.697Z,18.0
2023-02-20T15:40:18.509Z,18.0
2023-02-20T15:45:24.723Z,18.0
2023-02-20T15:50:30.931Z,17.0
2023-02-20T15:55:37.141Z,16.0
2023-02-20T16:00:43.347Z,13.0
2023-02-20T16:05:49.603Z,15.0
2023-02-20T16:10:55.762Z,12.0
2023-02-20T16:16:02.156Z,12.0
2023-02-20T16:21:07.286Z,14.5
2023-02-20T16:26:13.753Z,14.0
2023-02-20T16:31:18.813Z,15.0
2023-02-20T16:36:25.312Z,17.5
2023-02-20T16:41:31.417Z,19.0
2023-02-20T16:46:38.858Z,20.0
2023-02-20T16:51:43.481Z,23.0
2023-02-20T16:56:50.072Z,21.5
2023-02-20T17:01:55.957Z,18.0
2023-02-20T17:07:02.115Z,17.0
2023-02-20T17:12:08.629Z,16.0
2023-02-20T17:17:14.521Z,16.0
2023-02-20T17:22:20.725Z,16.0
2023-02-20T17:27:26.939Z,18.0
2023-02-20T17:32:33.477Z,19.5
2023-02-20T17:37:39.388Z,22.0
2023-02-20T17:42:45.558Z,23.0
2023-02-20T17:47:51.767Z,26.0
2023-02-20T17:52:57.983Z,27.0
2023-02-20T17:58:04.176Z,26.0
2023-02-20T18:03:10.521Z,23.0
2023-02-20T18:08:16.959Z,22.0
2023-02-20T18:13:22.809Z,19.0
2023-02-20T18:18:28.034Z,19.0
2023-02-20T18:23:34.252Z,19.0
2023-02-20T18:28:39.512Z,21.0
2023-02-20T18:33:45.689Z,24.0
2023-02-20T18:38:51.926Z,25.0
2023-02-20T18:43:58.120Z,26.0
2023-02-20T18:49:04.393Z,26.0
2023-02-20T18:54:10.536Z,29.0
2023-02-20T18:59:16.731Z,31.0
2023-02-20T19:04:22.943Z,35.0
2023-02-20T19:09:29.146Z,38.0
2023-02-20T19:14:35.353Z,38.0
2023-02-20T19:19:41.558Z,39.0
2023-02-20T19:24:47.875Z,40.0
2023-02-20T19:29:53.976Z,41.0
2023-02-20T19:35:00.193Z,38.0
2023-02-20T19:40:06.403Z,39.0
2023-02-20T19:45:12.606Z,37.0
2023-02-20T19:50:18.820Z,38.5
2023-02-20T19:55:25.025Z,42.0
2023-02-20T20:00:45.948Z,44.0
2023-02-20T20:05:39.678Z,43.0
2023-02-20T20:10:43.640Z,42.0
2023-02-20T20:15:48.902Z,42.0
2023-02-20T20:21:25.625Z,42.0
2023-02-20T20:26:01.293Z,43.0
2023-02-20T20:31:06.616Z,45.5
2023-02-20T20:36:12.746Z,45.0
2023-02-20T20:41:18.962Z,45.0
2023-02-20T20:46:25.257Z,44.0
2023-02-20T20:51:31.361Z,43.0
2023-02-20T20:56:37.567Z,41.5
2023-02-20T21:01:43.804Z,41.0
2023-02-20T21:06:49.007Z,42.0
2023-02-20T21:11:55.288Z,41.0
2023-02-20T21:17:01.416Z,41.0
2023-02-20T21:22:07.641Z,40.0
2023-02-20T21:27:13.838Z,41.5
2023-02-20T21:32:20.062Z,40.0
2023-02-20T21:37:26.248Z,42.5
2023-02-20T21:42:32.466Z,41.0
2023-02-20T21:47:39.687Z,45.0
2023-02-20T21:52:44.886Z,47.0
2023-02-20T21:57:51.084Z,46.5
2023-02-20T22:02:57.390Z,48.5
2023-02-20T22:08:03.509Z,48.0
2023-02-20T22:13:09.812Z,51.0
2023-02-20T22:18:14.954Z,50.0
2023-02-20T22:23:21.171Z,53.0
2023-02-20T22:28:26.390Z,53.5
2023-02-20T22:33:32.626Z,52.5
2023-02-20T22:38:38.825Z,50.5
2023-02-20T22:43:45.017Z,52.5
2023-02-20T22:48:51.229Z,52.0
2023-02-20T22:53:57.435Z,51.0
2023-02-20T22:59:03.642Z,49.5
2023-02-20T23:04:09.848Z,50.5
2023-02-20T23:09:16.068Z,52.0
2023-02-20T23:14:22.261Z,54.0
2023-02-20T23:19:29.152Z,53.0
2023-02-20T23:24:34.692Z,54.0
2023-02-20T23:29:40.914Z,52.0
2023-02-20T23:34:47.094Z,53.0
2023-02-20T23:39:53.296Z,51.0
2023-02-20T23:44:59.503Z,52.0
2023-02-20T23:50:05.713Z,53.5
2023-02-20T23:55:11.917Z,55.5
